sensor_id;sensor_type;location;lat;lon;timestamp;pressure;altitude;pressure_sealevel;temperature;humidity
51687;BME280;37774;52.192;4.584;2023-08-21T00:02:16;102468.78;;;16.32;100.00
51687;BME280;37774;52.192;4.584;2023-08-21T00:05:01;102478.34;;;16.47;100.00
51687;BME280;37774;52.192;4.584;2023-08-21T00:07:46;102378.97;;;15.89;100.00
51687;BME280;37774;52.192;4.584;2023-08-21T00:10:37;102488.81;;;16.45;100.00
51687;BME280;37774;52.192;4.584;2023-08-21T00:13:24;102488.81;;;16.50;100.00
51687;BME280;37774;52.192;4.584;2023-08-21T00:16:09;102488.84;;;16.44;100.00
51687;BME280;37774;52.192;4.584;2023-08-21T00:18:54;102483.63;;;16.39;100.00
51687;BME280;37774;52.192;4.584;2023-08-21T00:21:39;102482.75;;;16.32;100.00
51687;BME280;37774;52.192;4.584;2023-08-21T00:24:25;102476.69;;;16.24;100.00
51687;BME280;37774;52.192;4.584;2023-08-21T00:27:10;102432.13;;;16.21;100.00
51687;BME280;37774;52.192;4.584;2023-08-21T00:29:57;102464.63;;;15.80;100.00
51687;BME280;37774;52.192;4.584;2023-08-21T00:32:43;102459.38;;;15.90;100.00
51687;BME280;37774;52.192;4.584;2023-08-21T00:35:28;102448.84;;;16.03;100.00
51687;BME280;37774;52.192;4.584;2023-08-21T00:38:13;102359.84;;;15.66;100.00
51687;BME280;37774;52.192;4.584;2023-08-21T00:40:59;102437.34;;;16.24;100.00
51687;BME280;37774;52.192;4.584;2023-08-21T00:43:44;102443.50;;;16.20;100.00
51687;BME280;37774;52.192;4.584;2023-08-21T00:46:31;102438.41;;;15.87;100.00
51687;BME280;37774;52.192;4.584;2023-08-21T00:49:17;102438.41;;;15.90;100.00
51687;BME280;37774;52.192;4.584;2023-08-21T00:52:02;102437.56;;;15.77;100.00
51687;BME280;37774;52.192;4.584;2023-08-21T00:54:48;102435.78;;;15.89;100.00
51687;BME280;37774;52.192;4.584;2023-08-21T00:57:35;102441.03;;;15.89;100.00
51687;BME280;37774;52.192;4.584;2023-08-21T01:00:22;102401.75;;;15.69;100.00
51687;BME280;37774;52.192;4.584;2023-08-21T01:03:10;102437.50;;;15.85;100.00
51687;BME280;37774;52.192;4.584;2023-08-21T01:05:55;102450.66;;;15.91;100.00
51687;BME280;37774;52.192;4.584;2023-08-21T01:08:44;102445.38;;;15.84;100.00
51687;BME280;37774;52.192;4.584;2023-08-21T01:11:36;102403.56;;;15.59;100.00
51687;BME280;37774;52.192;4.584;2023-08-21T01:14:29;102475.06;;;15.98;100.00
51687;BME280;37774;52.192;4.584;2023-08-21T01:17:17;102477.69;;;15.95;100.00
51687;BME280;37774;52.192;4.584;2023-08-21T01:20:07;102478.56;;;16.02;100.00
51687;BME280;37774;52.192;4.584;2023-08-21T01:22:53;102471.53;;;16.05;100.00
51687;BME280;37774;52.192;4.584;2023-08-21T01:25:40;102462.88;;;15.96;100.00
51687;BME280;37774;52.192;4.584;2023-08-21T01:28:25;102463.72;;;15.93;100.00
51687;BME280;37774;52.192;4.584;2023-08-21T01:31:14;102476.81;;;15.96;100.00
51687;BME280;37774;52.192;4.584;2023-08-21T01:34:04;102471.59;;;15.87;100.00
51687;BME280;37774;52.192;4.584;2023-08-21T01:36:51;102471.59;;;15.82;100.00
51687;BME280;37774;52.192;4.584;2023-08-21T01:39:37;102470.72;;;15.77;100.00
51687;BME280;37774;52.192;4.584;2023-08-21T01:42:24;102455.88;;;15.76;100.00
51687;BME280;37774;52.192;4.584;2023-08-21T01:45:09;102439.28;;;15.77;100.00
51687;BME280;37774;52.192;4.584;2023-08-21T01:47:54;102462.00;;;15.89;100.00
51687;BME280;37774;52.192;4.584;2023-08-21T01:50:40;102427.97;;;15.73;100.00
51687;BME280;37774;52.192;4.584;2023-08-21T01:53:25;102408.78;;;15.65;100.00
51687;BME280;37774;52.192;4.584;2023-08-21T01:56:11;102450.66;;;15.81;100.00
51687;BME280;37774;52.192;4.584;2023-08-21T01:58:57;102424.47;;;15.63;100.00
51687;BME280;37774;52.192;4.584;2023-08-21T02:01:43;102453.25;;;15.90;100.00
51687;BME280;37774;52.192;4.584;2023-08-21T02:04:28;102399.22;;;15.48;100.00
51687;BME280;37774;52.192;4.584;2023-08-21T02:07:13;102455.06;;;15.69;100.00
51687;BME280;37774;52.192;4.584;2023-08-21T02:09:59;102453.31;;;15.65;100.00
51687;BME280;37774;52.192;4.584;2023-08-21T02:12:44;102438.50;;;15.58;100.00
51687;BME280;37774;52.192;4.584;2023-08-21T02:15:31;102432.34;;;15.65;100.00
51687;BME280;37774;52.192;4.584;2023-08-21T02:18:16;102380.88;;;15.48;100.00
51687;BME280;37774;52.192;4.584;2023-08-21T02:21:02;102425.38;;;15.67;100.00
51687;BME280;37774;52.192;4.584;2023-08-21T02:23:48;102434.13;;;15.60;100.00
51687;BME280;37774;52.192;4.584;2023-08-21T02:26:33;102428.91;;;15.57;100.00
51687;BME280;37774;52.192;4.584;2023-08-21T02:29:19;102389.63;;;15.44;100.00
51687;BME280;37774;52.192;4.584;2023-08-21T02:32:06;102383.53;;;15.34;100.00
51687;BME280;37774;52.192;4.584;2023-08-21T02:34:51;102409.59;;;15.75;100.00
51687;BME280;37774;52.192;4.584;2023-08-21T02:37:36;102420.09;;;15.73;100.00
51687;BME280;37774;52.192;4.584;2023-08-21T02:40:23;102427.06;;;15.74;100.00
51687;BME280;37774;52.192;4.584;2023-08-21T02:43:09;102424.44;;;15.73;100.00
51687;BME280;37774;52.192;4.584;2023-08-21T02:45:55;102422.75;;;15.56;100.00
51687;BME280;37774;52.192;4.584;2023-08-21T02:48:42;102428.00;;;15.53;100.00
51687;BME280;37774;52.192;4.584;2023-08-21T02:51:27;102407.09;;;15.41;100.00
51687;BME280;37774;52.192;4.584;2023-08-21T02:54:13;102405.31;;;15.57;100.00
51687;BME280;37774;52.192;4.584;2023-08-21T02:56:58;102325.13;;;15.17;100.00
51687;BME280;37774;52.192;4.584;2023-08-21T02:59:44;102292.00;;;14.99;100.00
51687;BME280;37774;52.192;4.584;2023-08-21T03:02:29;102367.78;;;15.50;100.00
51687;BME280;37774;52.192;4.584;2023-08-21T03:05:16;102401.84;;;15.52;100.00
51687;BME280;37774;52.192;4.584;2023-08-21T03:08:02;102400.06;;;15.60;100.00
51687;BME280;37774;52.192;4.584;2023-08-21T03:10:47;102400.94;;;15.56;100.00
51687;BME280;37774;52.192;4.584;2023-08-21T03:13:33;102368.69;;;15.29;100.00
51687;BME280;37774;52.192;4.584;2023-08-21T03:16:18;102402.69;;;15.49;100.00
51687;BME280;37774;52.192;4.584;2023-08-21T03:19:03;102367.00;;;15.14;100.00
51687;BME280;37774;52.192;4.584;2023-08-21T03:21:50;102417.59;;;15.30;100.00
51687;BME280;37774;52.192;4.584;2023-08-21T03:24:35;102374.00;;;15.04;100.00
51687;BME280;37774;52.192;4.584;2023-08-21T03:27:22;102427.22;;;15.26;100.00
51687;BME280;37774;52.192;4.584;2023-08-21T03:30:07;102421.13;;;15.18;100.00
51687;BME280;37774;52.192;4.584;2023-08-21T03:32:53;102382.75;;;14.98;100.00
51687;BME280;37774;52.192;4.584;2023-08-21T03:35:38;102411.50;;;15.18;100.00
51687;BME280;37774;52.192;4.584;2023-08-21T03:38:25;102408.91;;;15.08;100.00
51687;BME280;37774;52.192;4.584;2023-08-21T03:41:11;102396.63;;;15.27;100.00
51687;BME280;37774;52.192;4.584;2023-08-21T03:43:56;102362.66;;;15.05;100.00
51687;BME280;37774;52.192;4.584;2023-08-21T03:46:41;102396.66;;;15.21;100.00
51687;BME280;37774;52.192;4.584;2023-08-21T03:49:27;102407.97;;;15.32;100.00
51687;BME280;37774;52.192;4.584;2023-08-21T03:52:12;102280.72;;;14.47;100.00
51687;BME280;37774;52.192;4.584;2023-08-21T03:54:59;102381.84;;;15.04;100.00
51687;BME280;37774;52.192;4.584;2023-08-21T03:57:44;102408.00;;;15.38;100.00
51687;BME280;37774;52.192;4.584;2023-08-21T04:00:30;102392.28;;;15.19;100.00
51687;BME280;37774;52.192;4.584;2023-08-21T04:03:15;102365.28;;;14.96;100.00
51687;BME280;37774;52.192;4.584;2023-08-21T04:06:01;102402.78;;;15.13;100.00
51687;BME280;37774;52.192;4.584;2023-08-21T04:08:46;102395.81;;;14.97;100.00
51687;BME280;37774;52.192;4.584;2023-08-21T04:11:33;102392.34;;;14.85;100.00
51687;BME280;37774;52.192;4.584;2023-08-21T04:14:20;102365.31;;;14.74;100.00
51687;BME280;37774;52.192;4.584;2023-08-21T04:17:05;102398.44;;;14.90;100.00
51687;BME280;37774;52.192;4.584;2023-08-21T04:19:51;102334.75;;;14.50;100.00
51687;BME280;37774;52.192;4.584;2023-08-21T04:22:36;102351.31;;;14.67;100.00
51687;BME280;37774;52.192;4.584;2023-08-21T04:25:21;102400.22;;;14.96;100.00
51687;BME280;37774;52.192;4.584;2023-08-21T04:28:08;102392.34;;;14.84;100.00
51687;BME280;37774;52.192;4.584;2023-08-21T04:30:53;102407.19;;;14.89;100.00
51687;BME280;37774;52.192;4.584;2023-08-21T04:33:38;102382.75;;;14.73;100.00
51687;BME280;37774;52.192;4.584;2023-08-21T04:36:24;102397.56;;;15.06;100.00
51687;BME280;37774;52.192;4.584;2023-08-21T04:39:09;102387.97;;;14.94;100.00
51687;BME280;37774;52.192;4.584;2023-08-21T04:41:55;102382.75;;;14.81;100.00
51687;BME280;37774;52.192;4.584;2023-08-21T04:44:41;102408.03;;;15.01;100.00
51687;BME280;37774;52.192;4.584;2023-08-21T04:47:27;102406.28;;;15.00;100.00
51687;BME280;37774;52.192;4.584;2023-08-21T04:50:12;102411.53;;;14.83;100.00
51687;BME280;37774;52.192;4.584;2023-08-21T04:52:59;102403.69;;;14.84;100.00
51687;BME280;37774;52.192;4.584;2023-08-21T04:55:44;102402.81;;;14.88;100.00
51687;BME280;37774;52.192;4.584;2023-08-21T04:58:30;102356.59;;;14.92;100.00
51687;BME280;37774;52.192;4.584;2023-08-21T05:01:16;102404.53;;;15.08;100.00
51687;BME280;37774;52.192;4.584;2023-08-21T05:04:02;102398.44;;;15.14;100.00
51687;BME280;37774;52.192;4.584;2023-08-21T05:06:47;102402.81;;;15.12;100.00
51687;BME280;37774;52.192;4.584;2023-08-21T05:09:33;102406.28;;;15.11;100.00
51687;BME280;37774;52.192;4.584;2023-08-21T05:12:18;102392.31;;;15.16;100.00
51687;BME280;37774;52.192;4.584;2023-08-21T05:15:04;102411.47;;;15.28;100.00
51687;BME280;37774;52.192;4.584;2023-08-21T05:17:51;102407.97;;;15.32;100.00
51687;BME280;37774;52.192;4.584;2023-08-21T05:20:36;102406.25;;;15.40;100.00
51687;BME280;37774;52.192;4.584;2023-08-21T05:23:23;102383.56;;;15.28;100.00
51687;BME280;37774;52.192;4.584;2023-08-21T05:26:08;102401.84;;;15.52;100.00
51687;BME280;37774;52.192;4.584;2023-08-21T05:28:54;102394.00;;;15.42;100.00
51687;BME280;37774;52.192;4.584;2023-08-21T05:31:39;102400.94;;;15.56;100.00
51687;BME280;37774;52.192;4.584;2023-08-21T05:34:26;102376.56;;;15.41;100.00
51687;BME280;37774;52.192;4.584;2023-08-21T05:37:12;102366.94;;;15.42;100.00
51687;BME280;37774;52.192;4.584;2023-08-21T05:39:57;102421.84;;;15.71;100.00
51687;BME280;37774;52.192;4.584;2023-08-21T05:42:43;102432.31;;;15.77;100.00
51687;BME280;37774;52.192;4.584;2023-08-21T05:45:29;102428.78;;;15.85;100.00
51687;BME280;37774;52.192;4.584;2023-08-21T05:48:15;102414.81;;;15.89;100.00
51687;BME280;37774;52.192;4.584;2023-08-21T05:51:03;102420.91;;;15.94;100.00
51687;BME280;37774;52.192;4.584;2023-08-21T05:53:48;102411.28;;;15.98;100.00
51687;BME280;37774;52.192;4.584;2023-08-21T05:56:34;102415.53;;;16.16;100.00
51687;BME280;37774;52.192;4.584;2023-08-21T05:59:26;102408.53;;;16.19;100.00
51687;BME280;37774;52.192;4.584;2023-08-21T06:02:13;102411.97;;;16.29;100.00
51687;BME280;37774;52.192;4.584;2023-08-21T06:04:59;102403.16;;;16.40;100.00
51687;BME280;37774;52.192;4.584;2023-08-21T06:07:45;102409.22;;;16.49;100.00
51687;BME280;37774;52.192;4.584;2023-08-21T06:10:31;102415.25;;;16.62;100.00
51687;BME280;37774;52.192;4.584;2023-08-21T06:13:16;102400.28;;;16.74;100.00
51687;BME280;37774;52.192;4.584;2023-08-21T06:16:02;102402.78;;;16.86;100.00
51687;BME280;37774;52.192;4.584;2023-08-21T06:18:47;102410.59;;;16.96;100.00
51687;BME280;37774;52.192;4.584;2023-08-21T06:21:32;102408.69;;;17.13;100.00
51687;BME280;37774;52.192;4.584;2023-08-21T06:24:20;102416.50;;;17.21;100.00
51687;BME280;37774;52.192;4.584;2023-08-21T06:27:05;102424.25;;;17.32;100.00
51687;BME280;37774;52.192;4.584;2023-08-21T06:29:51;102425.03;;;17.42;100.00
51687;BME280;37774;52.192;4.584;2023-08-21T06:32:36;102417.88;;;17.56;100.00
51687;BME280;37774;52.192;4.584;2023-08-21T06:35:21;102426.53;;;17.64;100.00
51687;BME280;37774;52.192;4.584;2023-08-21T06:38:06;102430.66;;;17.86;100.00
51687;BME280;37774;52.192;4.584;2023-08-21T06:40:53;102417.34;;;17.98;100.00
51687;BME280;37774;52.192;4.584;2023-08-21T06:43:39;102358.91;;;17.77;100.00
51687;BME280;37774;52.192;4.584;2023-08-21T06:46:25;102384.03;;;17.97;100.00
51687;BME280;37774;52.192;4.584;2023-08-21T06:49:10;102421.22;;;18.36;100.00
51687;BME280;37774;52.192;4.584;2023-08-21T06:51:56;102403.63;;;18.38;100.00
51687;BME280;37774;52.192;4.584;2023-08-21T06:54:41;102399.09;;;18.48;100.00
51687;BME280;37774;52.192;4.584;2023-08-21T06:57:28;102428.34;;;18.84;100.00
51687;BME280;37774;52.192;4.584;2023-08-21T07:00:14;102422.97;;;18.91;100.00
51687;BME280;37774;52.192;4.584;2023-08-21T07:02:59;102440.25;;;19.09;100.00
51687;BME280;37774;52.192;4.584;2023-08-21T07:05:46;102446.34;;;19.12;100.00
51687;BME280;37774;52.192;4.584;2023-08-21T07:08:32;102442.59;;;19.24;100.00
51687;BME280;37774;52.192;4.584;2023-08-21T07:11:17;102424.16;;;19.26;100.00
51687;BME280;37774;52.192;4.584;2023-08-21T07:14:04;102453.47;;;19.54;100.00
51687;BME280;37774;52.192;4.584;2023-08-21T07:16:49;102431.56;;;19.51;100.00
51687;BME280;37774;52.192;4.584;2023-08-21T07:19:35;102452.16;;;19.77;100.00
51687;BME280;37774;52.192;4.584;2023-08-21T07:22:20;102461.56;;;19.91;100.00
51687;BME280;37774;52.192;4.584;2023-08-21T07:25:06;102459.50;;;20.05;100.00
51687;BME280;37774;52.192;4.584;2023-08-21T07:27:53;102465.34;;;20.20;100.00
51687;BME280;37774;52.192;4.584;2023-08-21T07:30:40;102431.31;;;20.06;100.00
51687;BME280;37774;52.192;4.584;2023-08-21T07:33:26;102470.19;;;20.38;100.00
51687;BME280;37774;52.192;4.584;2023-08-21T07:36:11;102477.75;;;20.54;100.00
51687;BME280;37774;52.192;4.584;2023-08-21T07:39:00;102456.53;;;20.58;100.00
51687;BME280;37774;52.192;4.584;2023-08-21T07:41:46;102487.16;;;21.04;100.00
51687;BME280;37774;52.192;4.584;2023-08-21T07:44:31;102492.88;;;21.21;100.00
51687;BME280;37774;52.192;4.584;2023-08-21T07:47:18;102490.97;;;21.26;100.00
51687;BME280;37774;52.192;4.584;2023-08-21T07:50:04;102510.13;;;21.36;100.00
51687;BME280;37774;52.192;4.584;2023-08-21T07:52:50;102530.69;;;21.58;100.00
51687;BME280;37774;52.192;4.584;2023-08-21T07:55:36;102540.84;;;21.75;100.00
51687;BME280;37774;52.192;4.584;2023-08-21T07:58:21;102541.16;;;21.96;100.00
51687;BME280;37774;52.192;4.584;2023-08-21T08:01:06;102530.03;;;22.14;100.00
51687;BME280;37774;52.192;4.584;2023-08-21T08:03:53;102555.72;;;22.41;100.00
51687;BME280;37774;52.192;4.584;2023-08-21T08:06:39;102545.81;;;22.47;100.00
51687;BME280;37774;52.192;4.584;2023-08-21T08:09:24;102541.50;;;22.43;100.00
51687;BME280;37774;52.192;4.584;2023-08-21T08:12:10;102563.94;;;22.61;100.00
51687;BME280;37774;52.192;4.584;2023-08-21T08:14:55;102551.19;;;23.01;100.00
51687;BME280;37774;52.192;4.584;2023-08-21T08:17:40;102559.88;;;23.07;100.00
51687;BME280;37774;52.192;4.584;2023-08-21T08:20:27;102559.56;;;23.43;100.00
51687;BME280;37774;52.192;4.584;2023-08-21T08:23:13;102566.69;;;23.41;100.00
51687;BME280;37774;52.192;4.584;2023-08-21T08:25:58;102573.63;;;23.45;100.00
51687;BME280;37774;52.192;4.584;2023-08-21T08:28:44;102569.25;;;23.69;100.00
51687;BME280;37774;52.192;4.584;2023-08-21T08:31:29;102553.84;;;23.79;100.00
51687;BME280;37774;52.192;4.584;2023-08-21T08:34:15;102572.63;;;24.24;100.00
51687;BME280;37774;52.192;4.584;2023-08-21T08:37:03;102562.97;;;24.21;100.00
51687;BME280;37774;52.192;4.584;2023-08-21T08:39:48;102563.25;;;24.37;100.00
51687;BME280;37774;52.192;4.584;2023-08-21T08:42:34;102531.59;;;24.31;100.00
51687;BME280;37774;52.192;4.584;2023-08-21T08:45:28;102554.47;;;24.35;100.00
51687;BME280;37774;52.192;4.584;2023-08-21T08:48:14;102567.59;;;24.62;100.00
51687;BME280;37774;52.192;4.584;2023-08-21T08:51:01;102531.13;;;24.43;100.00
51687;BME280;37774;52.192;4.584;2023-08-21T08:53:49;102544.00;;;24.76;100.00
51687;BME280;37774;52.192;4.584;2023-08-21T08:56:34;102536.66;;;24.83;100.00
51687;BME280;37774;52.192;4.584;2023-08-21T08:59:20;102550.00;;;25.24;100.00
51687;BME280;37774;52.192;4.584;2023-08-21T09:02:05;102553.78;;;25.19;100.00
51687;BME280;37774;52.192;4.584;2023-08-21T09:04:51;102578.63;;;24.97;100.00
51687;BME280;37774;52.192;4.584;2023-08-21T09:07:36;102590.28;;;25.15;100.00
51687;BME280;37774;52.192;4.584;2023-08-21T09:10:25;102586.69;;;25.37;100.00
51687;BME280;37774;52.192;4.584;2023-08-21T09:13:12;102552.78;;;25.21;100.00
51687;BME280;37774;52.192;4.584;2023-08-21T09:15:58;102519.31;;;24.50;100.00
51687;BME280;37774;52.192;4.584;2023-08-21T09:18:47;102579.19;;;25.26;100.00
51687;BME280;37774;52.192;4.584;2023-08-21T09:21:32;102576.66;;;25.45;100.00
51687;BME280;37774;52.192;4.584;2023-08-21T09:24:17;102573.69;;;25.72;100.00
51687;BME280;37774;52.192;4.584;2023-08-21T09:27:13;102583.59;;;25.27;100.00
51687;BME280;37774;52.192;4.584;2023-08-21T09:30:00;102571.66;;;25.36;100.00
51687;BME280;37774;52.192;4.584;2023-08-21T09:32:54;102556.50;;;25.38;100.00
51687;BME280;37774;52.192;4.584;2023-08-21T09:35:39;102555.94;;;25.52;100.00
51687;BME280;37774;52.192;4.584;2023-08-21T09:38:27;102543.41;;;25.75;100.00
51687;BME280;37774;52.192;4.584;2023-08-21T09:41:13;102557.72;;;25.72;100.00
51687;BME280;37774;52.192;4.584;2023-08-21T09:44:01;102546.69;;;26.01;100.00
51687;BME280;37774;52.192;4.584;2023-08-21T09:46:48;102541.75;;;25.91;100.00
51687;BME280;37774;52.192;4.584;2023-08-21T09:49:34;102540.25;;;26.25;100.00
51687;BME280;37774;52.192;4.584;2023-08-21T09:52:21;102528.50;;;26.30;100.00
51687;BME280;37774;52.192;4.584;2023-08-21T09:55:07;102511.13;;;26.21;100.00
51687;BME280;37774;52.192;4.584;2023-08-21T09:57:54;102514.75;;;26.20;100.00
51687;BME280;37774;52.192;4.584;2023-08-21T10:00:44;102501.34;;;26.21;100.00
51687;BME280;37774;52.192;4.584;2023-08-21T10:03:31;102522.69;;;26.58;100.00
51687;BME280;37774;52.192;4.584;2023-08-21T10:06:18;102492.34;;;26.78;100.00
51687;BME280;37774;52.192;4.584;2023-08-21T10:09:04;102486.09;;;26.97;100.00
51687;BME280;37774;52.192;4.584;2023-08-21T10:11:49;102499.25;;;26.82;100.00
51687;BME280;37774;52.192;4.584;2023-08-21T10:14:37;102438.72;;;26.67;100.00
51687;BME280;37774;52.192;4.584;2023-08-21T10:17:24;102485.47;;;26.92;100.00
51687;BME280;37774;52.192;4.584;2023-08-21T10:20:10;102465.34;;;26.32;100.00
51687;BME280;37774;52.192;4.584;2023-08-21T10:23:01;102443.41;;;26.79;100.00
51687;BME280;37774;52.192;4.584;2023-08-21T10:25:46;102478.50;;;26.72;100.00
51687;BME280;37774;52.192;4.584;2023-08-21T10:28:51;102464.66;;;27.34;100.00
51687;BME280;37774;52.192;4.584;2023-08-21T10:31:38;102463.47;;;27.39;100.00
51687;BME280;37774;52.192;4.584;2023-08-21T10:34:31;102446.47;;;27.58;100.00
51687;BME280;37774;52.192;4.584;2023-08-21T10:37:17;102423.31;;;27.25;100.00
51687;BME280;37774;52.192;4.584;2023-08-21T10:40:02;102456.00;;;27.12;100.00
51687;BME280;37774;52.192;4.584;2023-08-21T10:42:48;102454.59;;;27.39;100.00
51687;BME280;37774;52.192;4.584;2023-08-21T10:45:53;102426.78;;;27.43;100.00
51687;BME280;37774;52.192;4.584;2023-08-21T10:48:39;102424.44;;;27.70;100.00
51687;BME280;37774;52.192;4.584;2023-08-21T10:51:29;102441.84;;;27.62;100.00
51687;BME280;37774;52.192;4.584;2023-08-21T10:54:14;102412.41;;;27.79;100.00
51687;BME280;37774;52.192;4.584;2023-08-21T10:57:01;102443.84;;;27.40;100.00
51687;BME280;37774;52.192;4.584;2023-08-21T10:59:51;102449.53;;;26.64;100.00
51687;BME280;37774;52.192;4.584;2023-08-21T11:02:38;102423.22;;;27.60;100.00
51687;BME280;37774;52.192;4.584;2023-08-21T11:05:23;102431.44;;;27.73;100.00
51687;BME280;37774;52.192;4.584;2023-08-21T11:08:10;102441.94;;;28.08;100.00
51687;BME280;37774;52.192;4.584;2023-08-21T11:10:55;102442.00;;;28.07;100.00
51687;BME280;37774;52.192;4.584;2023-08-21T11:13:52;102428.75;;;28.05;100.00
51687;BME280;37774;52.192;4.584;2023-08-21T11:16:38;102438.06;;;27.82;100.00
51687;BME280;37774;52.192;4.584;2023-08-21T11:19:24;102423.75;;;27.83;100.00
51687;BME280;37774;52.192;4.584;2023-08-21T11:22:10;102427.00;;;28.67;100.00
51687;BME280;37774;52.192;4.584;2023-08-21T11:24:57;102419.28;;;28.16;100.00
51687;BME280;37774;52.192;4.584;2023-08-21T11:27:43;102433.81;;;27.78;100.00
51687;BME280;37774;52.192;4.584;2023-08-21T11:30:28;102417.28;;;28.03;100.00
51687;BME280;37774;52.192;4.584;2023-08-21T11:33:15;102426.16;;;27.72;100.00
51687;BME280;37774;52.192;4.584;2023-08-21T11:36:00;102431.00;;;28.13;100.00
51687;BME280;37774;52.192;4.584;2023-08-21T11:38:58;102409.53;;;28.31;100.00
51687;BME280;37774;52.192;4.584;2023-08-21T11:41:54;102412.50;;;28.40;100.00
51687;BME280;37774;52.192;4.584;2023-08-21T11:44:44;102402.16;;;28.34;100.00
51687;BME280;37774;52.192;4.584;2023-08-21T11:47:32;102420.16;;;28.16;100.00
51687;BME280;37774;52.192;4.584;2023-08-21T11:50:17;102424.78;;;28.28;100.00
51687;BME280;37774;52.192;4.584;2023-08-21T11:53:04;102426.03;;;28.37;100.00
51687;BME280;37774;52.192;4.584;2023-08-21T11:55:50;102420.44;;;28.10;100.00
51687;BME280;37774;52.192;4.584;2023-08-21T11:58:39;102425.03;;;28.24;100.00
51687;BME280;37774;52.192;4.584;2023-08-21T12:01:24;102407.00;;;28.89;100.00
51687;BME280;37774;52.192;4.584;2023-08-21T12:04:16;102413.56;;;28.38;100.00
51687;BME280;37774;52.192;4.584;2023-08-21T12:07:02;102410.56;;;28.58;100.00
51687;BME280;37774;52.192;4.584;2023-08-21T12:09:47;102420.38;;;28.11;100.00
51687;BME280;37774;52.192;4.584;2023-08-21T12:12:33;102451.50;;;26.60;100.00
51687;BME280;37774;52.192;4.584;2023-08-21T12:15:20;102441.25;;;27.05;100.00
51687;BME280;37774;52.192;4.584;2023-08-21T12:18:05;102428.94;;;28.18;100.00
51687;BME280;37774;52.192;4.584;2023-08-21T12:20:51;102413.22;;;28.28;100.00
51687;BME280;37774;52.192;4.584;2023-08-21T12:23:36;102433.78;;;27.12;100.00
51687;BME280;37774;52.192;4.584;2023-08-21T12:26:22;102431.84;;;27.65;100.00
51687;BME280;37774;52.192;4.584;2023-08-21T12:29:07;102417.78;;;28.10;100.00
51687;BME280;37774;52.192;4.584;2023-08-21T12:31:54;102429.44;;;27.61;100.00
51687;BME280;37774;52.192;4.584;2023-08-21T12:34:39;102436.16;;;28.00;100.00
51687;BME280;37774;52.192;4.584;2023-08-21T12:37:24;102405.47;;;28.07;100.00
51687;BME280;37774;52.192;4.584;2023-08-21T12:40:10;102421.25;;;28.28;100.00
51687;BME280;37774;52.192;4.584;2023-08-21T12:42:55;102445.13;;;27.99;100.00
51687;BME280;37774;52.192;4.584;2023-08-21T12:45:41;102434.97;;;28.22;100.00
51687;BME280;37774;52.192;4.584;2023-08-21T12:48:28;102379.66;;;27.60;100.00
51687;BME280;37774;52.192;4.584;2023-08-21T12:51:14;102426.34;;;27.68;100.00
51687;BME280;37774;52.192;4.584;2023-08-21T12:53:59;102406.19;;;28.41;100.00
51687;BME280;37774;52.192;4.584;2023-08-21T12:56:44;102426.06;;;27.89;100.00
51687;BME280;37774;52.192;4.584;2023-08-21T12:59:30;102401.97;;;27.75;100.00
51687;BME280;37774;52.192;4.584;2023-08-21T13:02:15;102438.34;;;27.44;100.00
51687;BME280;37774;52.192;4.584;2023-08-21T13:05:02;102404.09;;;28.00;100.00
51687;BME280;37774;52.192;4.584;2023-08-21T13:07:49;102426.84;;;27.59;100.00
51687;BME280;37774;52.192;4.584;2023-08-21T13:10:35;102428.03;;;28.02;100.00
51687;BME280;37774;52.192;4.584;2023-08-21T13:13:20;102422.78;;;28.32;100.00
51687;BME280;37774;52.192;4.584;2023-08-21T13:16:05;102412.09;;;28.32;100.00
51687;BME280;37774;52.192;4.584;2023-08-21T13:18:51;102410.13;;;28.36;100.00
51687;BME280;37774;52.192;4.584;2023-08-21T13:21:38;102388.75;;;27.55;100.00
51687;BME280;37774;52.192;4.584;2023-08-21T13:24:23;102420.97;;;28.00;100.00
51687;BME280;37774;52.192;4.584;2023-08-21T13:27:09;102425.66;;;28.13;100.00
51687;BME280;37774;52.192;4.584;2023-08-21T13:29:55;102418.06;;;27.89;100.00
51687;BME280;37774;52.192;4.584;2023-08-21T13:32:40;102426.78;;;27.43;100.00
51687;BME280;37774;52.192;4.584;2023-08-21T13:35:25;102418.16;;;28.20;100.00
51687;BME280;37774;52.192;4.584;2023-08-21T13:38:13;102410.41;;;27.99;100.00
51687;BME280;37774;52.192;4.584;2023-08-21T13:40:59;102398.66;;;27.53;100.00
51687;BME280;37774;52.192;4.584;2023-08-21T13:43:44;102417.91;;;28.24;100.00
51687;BME280;37774;52.192;4.584;2023-08-21T13:46:29;102429.72;;;27.72;100.00
51687;BME280;37774;52.192;4.584;2023-08-21T13:49:15;102429.78;;;27.70;100.00
51687;BME280;37774;52.192;4.584;2023-08-21T13:52:00;102427.72;;;27.26;100.00
51687;BME280;37774;52.192;4.584;2023-08-21T13:54:47;102408.97;;;27.10;100.00
51687;BME280;37774;52.192;4.584;2023-08-21T13:57:32;102425.53;;;27.50;100.00
51687;BME280;37774;52.192;4.584;2023-08-21T14:00:18;102408.03;;;27.45;100.00
51687;BME280;37774;52.192;4.584;2023-08-21T14:03:04;102441.84;;;27.78;100.00
51687;BME280;37774;52.192;4.584;2023-08-21T14:05:49;102431.16;;;27.78;100.00
51687;BME280;37774;52.192;4.584;2023-08-21T14:08:35;102424.94;;;27.61;100.00
51687;BME280;37774;52.192;4.584;2023-08-21T14:11:22;102432.88;;;27.79;100.00
51687;BME280;37774;52.192;4.584;2023-08-21T14:14:07;102427.44;;;27.64;100.00
51687;BME280;37774;52.192;4.584;2023-08-21T14:16:52;102410.16;;;27.88;100.00
51687;BME280;37774;52.192;4.584;2023-08-21T14:19:38;102409.44;;;27.84;100.00